Time;durP1;ratioP1;P1;durP2;ratioP2;P2;SDS_P1;SDS_P2;PMS_P1;PMS_P2;Temp;Humidity;BMP_temperature;BMP_pressure;BME280_temperature;BME280_humidity;BME280_pressure;Samples;Min_cycle;Max_cycle;Signal;HPM_P1;HPM_P2
2021/08/21 00:00:11;;;;;;;23.52;19.27;;;16.70;99.90;;;;;;4976174;28;20026;-72
2021/08/21 00:02:39;;;;;;;20.33;16.60;;;16.70;99.90;;;;;;4976109;28;20023;-72
2021/08/21 00:05:07;;;;;;;18.98;15.70;;;16.80;99.90;;;;;;4976262;28;20023;-73
2021/08/21 00:07:35;;;;;;;19.45;15.40;;;16.80;99.90;;;;;;4975973;28;20113;-72
2021/08/21 00:10:05;;;;;;;17.55;15.02;;;16.90;99.90;;;;;;4975693;28;20069;-72
2021/08/21 00:12:33;;;;;;;18.88;15.52;;;17.00;99.90;;;;;;4974120;28;20035;-72
2021/08/21 00:15:00;;;;;;;14.35;12.85;;;16.90;99.90;;;;;;4975414;28;20069;-72
2021/08/21 00:17:28;;;;;;;14.32;11.65;;;16.70;99.90;;;;;;4974073;28;20035;-73
2021/08/21 00:19:55;;;;;;;13.25;11.93;;;16.80;99.90;;;;;;4975439;28;20511;-72
2021/08/21 00:22:22;;;;;;;14.60;13.02;;;16.80;99.90;;;;;;4975442;28;20488;-72
2021/08/21 00:24:50;;;;;;;12.32;11.15;;;16.70;99.90;;;;;;4974832;28;20023;-71
2021/08/21 00:27:17;;;;;;;12.20;10.32;;;16.70;99.90;;;;;;4975412;28;20026;-72
2021/08/21 00:29:44;;;;;;;13.00;11.27;;;16.70;99.90;;;;;;4975334;28;20050;-72
2021/08/21 00:32:12;;;;;;;15.50;11.73;;;16.80;99.90;;;;;;4975481;28;20454;-71
2021/08/21 00:34:39;;;;;;;12.55;11.10;;;17.00;99.90;;;;;;4975095;28;20023;-73
2021/08/21 00:37:06;;;;;;;10.70;9.50;;;17.10;99.90;;;;;;4973621;28;20027;-71
2021/08/21 00:39:34;;;;;;;9.93;8.95;;;17.20;99.90;;;;;;4975255;28;20384;-71
2021/08/21 00:42:01;;;;;;;10.63;9.40;;;17.40;99.90;;;;;;4975165;28;20067;-71
2021/08/21 00:44:30;;;;;;;8.73;7.93;;;17.40;99.90;;;;;;4973599;28;20031;-72
2021/08/21 00:47:07;;;;;;;8.70;7.53;;;17.40;99.90;;;;;;4975081;28;20026;-72
2021/08/21 00:49:39;;;;;;;8.80;7.65;;;17.30;99.90;;;;;;4973623;28;20026;-72
2021/08/21 00:52:12;;;;;;;7.40;6.80;;;17.30;99.90;;;;;;4974992;28;20022;-72
2021/08/21 00:54:39;;;;;;;5.47;4.93;;;17.40;99.90;;;;;;4975162;28;20101;-72
2021/08/21 00:57:12;;;;;;;7.07;5.63;;;17.50;99.90;;;;;;4974712;28;20097;-71
2021/08/21 00:59:42;;;;;;;6.93;6.32;;;17.60;99.90;;;;;;4973594;28;20031;-71
2021/08/21 01:02:11;;;;;;;6.88;6.25;;;17.80;99.90;;;;;;4974758;28;20497;-70
2021/08/21 01:04:48;;;;;;;6.78;6.03;;;18.00;99.90;;;;;;4974776;28;20027;-71
2021/08/21 01:07:25;;;;;;;5.55;5.05;;;18.10;99.90;;;;;;4974795;28;20030;-71
2021/08/21 01:09:52;;;;;;;5.78;5.28;;;18.10;99.90;;;;;;4974674;28;20132;-72
2021/08/21 01:12:22;;;;;;;7.15;6.25;;;18.10;99.90;;;;;;4974639;28;20029;-72
2021/08/21 01:14:51;;;;;;;7.07;5.38;;;18.10;99.90;;;;;;4974424;28;20038;-72
2021/08/21 01:17:19;;;;;;;5.25;4.75;;;18.20;99.90;;;;;;4973280;28;20129;-72
2021/08/21 01:19:49;;;;;;;7.40;5.40;;;18.30;99.90;;;;;;4974528;28;20026;-70
2021/08/21 01:22:19;;;;;;;5.97;5.47;;;18.30;99.90;;;;;;4974291;28;20027;-72
2021/08/21 01:24:51;;;;;;;7.15;5.57;;;18.20;99.90;;;;;;4974490;28;20026;-72
2021/08/21 01:27:21;;;;;;;6.30;5.70;;;18.30;99.90;;;;;;4974275;28;20377;-71
2021/08/21 01:29:50;;;;;;;6.32;5.72;;;18.30;99.90;;;;;;4974445;28;20039;-71
2021/08/21 01:32:19;;;;;;;6.80;6.20;;;18.30;99.90;;;;;;4974457;28;20443;-71
2021/08/21 01:34:46;;;;;;;6.70;6.07;;;18.30;99.90;;;;;;4972546;28;20121;-71
2021/08/21 01:37:18;;;;;;;7.05;5.85;;;18.30;99.90;;;;;;4973883;28;20487;-71
2021/08/21 01:39:49;;;;;;;8.82;6.82;;;18.40;99.90;;;;;;4973276;28;20404;-71
2021/08/21 01:42:18;;;;;;;6.63;5.10;;;18.50;99.90;;;;;;4973010;28;20029;-70
2021/08/21 01:44:45;;;;;;;5.03;4.63;;;18.40;99.90;;;;;;4974294;28;20027;-69
2021/08/21 01:47:14;;;;;;;6.90;5.70;;;18.50;99.90;;;;;;4974167;28;20027;-70
2021/08/21 01:49:42;;;;;;;6.55;5.95;;;18.70;99.90;;;;;;4974195;28;20075;-70
2021/08/21 01:52:10;;;;;;;8.88;7.90;;;18.80;99.90;;;;;;4972522;28;20050;-70
2021/08/21 01:54:38;;;;;;;9.82;8.35;;;18.80;99.90;;;;;;4974136;28;20034;-70
2021/08/21 01:57:06;;;;;;;11.20;9.95;;;18.90;99.90;;;;;;4972599;28;20030;-69
2021/08/21 01:59:37;;;;;;;14.02;10.80;;;19.00;99.90;;;;;;4972484;28;20057;-70
2021/08/21 02:02:07;;;;;;;13.30;11.93;;;19.00;99.80;;;;;;4974047;28;20023;-69
2021/08/21 02:04:35;;;;;;;16.10;14.23;;;19.00;98.90;;;;;;4973920;28;20484;-70
2021/08/21 02:07:02;;;;;;;16.63;15.00;;;19.10;98.60;;;;;;4972527;28;20396;-70
2021/08/21 02:09:30;;;;;;;21.73;19.52;;;19.10;98.20;;;;;;4973724;28;20038;-70
2021/08/21 02:11:58;;;;;;;25.33;22.60;;;19.20;98.20;;;;;;4972548;28;20023;-69
2021/08/21 02:14:27;;;;;;;27.80;24.80;;;19.20;98.50;;;;;;4972251;28;20082;-70
2021/08/21 02:16:58;;;;;;;28.80;25.70;;;19.30;98.80;;;;;;4972331;28;20031;-70
2021/08/21 02:19:26;;;;;;;30.92;27.15;;;19.20;98.60;;;;;;4974032;28;20038;-69
2021/08/21 02:21:57;;;;;;;34.90;29.05;;;19.50;98.50;;;;;;4973723;28;20053;-70
2021/08/21 02:24:25;;;;;;;37.80;32.65;;;19.50;98.20;;;;;;4972402;28;20067;-70
2021/08/21 02:27:01;;;;;;;42.17;37.03;;;19.40;98.00;;;;;;4972213;28;20435;-70
2021/08/21 02:29:29;;;;;;;41.40;35.78;;;19.30;98.20;;;;;;4973554;28;20057;-70
2021/08/21 02:31:56;;;;;;;48.05;41.65;;;19.40;98.10;;;;;;4973573;28;20515;-69
2021/08/21 02:34:25;;;;;;;51.38;45.67;;;19.60;98.10;;;;;;4973607;28;20023;-70
2021/08/21 02:36:53;;;;;;;61.72;54.92;;;19.70;97.80;;;;;;4973392;28;20027;-69
2021/08/21 02:39:21;;;;;;;54.88;49.03;;;20.00;97.70;;;;;;4973633;28;20019;-70
2021/08/21 02:41:48;;;;;;;56.10;50.45;;;20.30;97.70;;;;;;4972324;28;20046;-70
2021/08/21 02:44:16;;;;;;;47.97;42.88;;;20.30;96.40;;;;;;4973549;28;20543;-70
2021/08/21 02:46:43;;;;;;;49.78;44.50;;;20.50;96.30;;;;;;4974462;28;20023;-69
2021/08/21 02:49:10;;;;;;;42.42;37.70;;;20.60;96.70;;;;;;4975734;28;20027;-70
2021/08/21 02:51:38;;;;;;;37.33;33.42;;;20.80;95.80;;;;;;4975672;28;20030;-69
2021/08/21 02:54:05;;;;;;;36.47;32.58;;;20.90;95.90;;;;;;4976794;28;20031;-68
2021/08/21 02:56:32;;;;;;;30.90;27.48;;;20.90;95.60;;;;;;4976778;28;20197;-69
2021/08/21 02:59:00;;;;;;;24.42;22.02;;;21.00;95.80;;;;;;4976722;28;20027;-69
2021/08/21 03:01:27;;;;;;;30.30;27.17;;;21.10;95.00;;;;;;4976854;28;20023;-69
2021/08/21 03:03:55;;;;;;;38.95;35.08;;;21.20;95.60;;;;;;4976646;28;20019;-70
2021/08/21 03:06:23;;;;;;;50.65;45.35;;;21.20;95.30;;;;;;4975273;28;20396;-69
2021/08/21 03:08:51;;;;;;;55.20;49.75;;;21.30;94.40;;;;;;4975246;28;20049;-69
2021/08/21 03:11:18;;;;;;;63.00;56.58;;;21.40;93.60;;;;;;4975281;28;20062;-69
2021/08/21 03:13:46;;;;;;;66.55;59.90;;;21.30;93.40;;;;;;4975409;28;20034;-69
2021/08/21 03:16:13;;;;;;;60.30;54.05;;;21.40;93.80;;;;;;4975016;28;20496;-69
2021/08/21 03:18:41;;;;;;;62.03;55.78;;;21.50;93.20;;;;;;4976492;28;20035;-69
2021/08/21 03:21:08;;;;;;;59.80;53.83;;;21.60;93.40;;;;;;4976593;28;20019;-69
2021/08/21 03:23:38;;;;;;;55.47;49.88;;;21.50;93.30;;;;;;4975206;28;20027;-68
2021/08/21 03:26:06;;;;;;;57.73;51.50;;;21.50;93.30;;;;;;4976459;28;20042;-69
2021/08/21 03:28:34;;;;;;;49.50;44.28;;;21.70;93.30;;;;;;4975105;28;20031;-69
2021/08/21 03:31:02;;;;;;;47.47;42.42;;;21.70;93.10;;;;;;4974915;28;20077;-68
2021/08/21 03:33:29;;;;;;;40.35;34.38;;;21.80;93.40;;;;;;4974872;28;20554;-69
2021/08/21 03:35:56;;;;;;;36.13;30.50;;;21.90;93.00;;;;;;4974779;28;20031;-68
2021/08/21 03:38:23;;;;;;;34.75;30.40;;;21.80;93.10;;;;;;4976218;28;20058;-69
2021/08/21 03:40:51;;;;;;;29.13;26.10;;;21.80;93.30;;;;;;4976201;28;20027;-69
2021/08/21 03:43:19;;;;;;;25.95;23.15;;;21.90;92.70;;;;;;4976100;28;20026;-69
2021/08/21 03:45:46;;;;;;;31.73;26.85;;;21.90;92.70;;;;;;4976144;28;20026;-68
2021/08/21 03:48:13;;;;;;;31.65;28.35;;;21.90;93.10;;;;;;4976025;28;20023;-68
2021/08/21 03:50:41;;;;;;;34.10;30.50;;;22.00;93.20;;;;;;4976055;28;20103;-68
2021/08/21 03:53:08;;;;;;;33.92;30.42;;;22.10;92.80;;;;;;4974613;28;20026;-68
2021/08/21 03:55:35;;;;;;;36.00;32.30;;;22.20;92.90;;;;;;4974382;28;20077;-68
2021/08/21 03:58:03;;;;;;;38.63;34.70;;;22.20;92.40;;;;;;4975071;28;20026;-68
2021/08/21 04:00:30;;;;;;;59.10;53.28;;;22.30;92.60;;;;;;4975660;28;20018;-67
2021/08/21 04:02:57;;;;;;;58.97;53.20;;;22.20;92.40;;;;;;4975795;28;20038;-67
2021/08/21 04:05:28;;;;;;;61.83;55.35;;;22.20;92.60;;;;;;4975779;28;20023;-68
2021/08/21 04:07:56;;;;;;;60.40;54.22;;;22.30;93.10;;;;;;4975673;28;20027;-68
2021/08/21 04:10:24;;;;;;;54.10;48.70;;;22.30;92.90;;;;;;4975570;28;20023;-68
2021/08/21 04:12:51;;;;;;;55.13;49.60;;;22.30;92.90;;;;;;4975451;28;20041;-68
2021/08/21 04:15:19;;;;;;;55.00;49.60;;;22.40;92.80;;;;;;4975310;28;20090;-68
2021/08/21 04:17:46;;;;;;;54.33;48.70;;;22.40;92.00;;;;;;4974102;28;20042;-68
2021/08/21 04:20:13;;;;;;;53.45;48.08;;;22.40;91.90;;;;;;4975354;28;20031;-68
2021/08/21 04:22:41;;;;;;;49.38;44.25;;;22.40;91.80;;;;;;4974118;28;20044;-67
2021/08/21 04:25:09;;;;;;;49.78;44.88;;;22.30;92.80;;;;;;4973918;28;20118;-68
2021/08/21 04:27:36;;;;;;;51.05;45.80;;;22.50;93.10;;;;;;4973990;28;20555;-68
2021/08/21 04:30:04;;;;;;;49.38;44.38;;;22.40;92.80;;;;;;4973764;28;20026;-68
2021/08/21 04:32:32;;;;;;;51.08;45.85;;;22.40;92.90;;;;;;4975077;28;20446;-68
2021/08/21 04:34:59;;;;;;;50.25;45.20;;;22.40;92.80;;;;;;4975095;28;20022;-68
2021/08/21 04:37:27;;;;;;;50.45;45.33;;;22.50;93.10;;;;;;4974899;28;20050;-69
2021/08/21 04:39:54;;;;;;;51.03;46.10;;;22.40;92.90;;;;;;4975117;28;20019;-68
2021/08/21 04:42:21;;;;;;;50.15;45.17;;;22.50;93.30;;;;;;4974917;28;20106;-67
2021/08/21 04:44:49;;;;;;;47.53;42.92;;;22.50;93.30;;;;;;4973558;28;20027;-67
2021/08/21 04:47:16;;;;;;;41.75;37.65;;;22.50;93.50;;;;;;4974993;28;20026;-68
2021/08/21 04:49:43;;;;;;;41.70;37.60;;;22.50;92.60;;;;;;4974758;28;20434;-68
2021/08/21 04:52:11;;;;;;;36.70;32.90;;;22.40;92.60;;;;;;4973545;28;20082;-68
2021/08/21 04:54:38;;;;;;;37.20;33.60;;;22.30;92.20;;;;;;4974753;28;20077;-67
2021/08/21 04:57:05;;;;;;;39.50;35.38;;;22.30;92.40;;;;;;4973262;28;20030;-67
2021/08/21 04:59:33;;;;;;;37.70;33.90;;;22.30;92.10;;;;;;4974673;28;20015;-67
2021/08/21 05:02:00;;;;;;;37.20;33.65;;;22.40;92.50;;;;;;4975498;28;20015;-67
2021/08/21 05:04:28;;;;;;;38.78;35.00;;;22.30;92.00;;;;;;4973845;28;20510;-67
2021/08/21 05:06:55;;;;;;;36.42;32.90;;;22.40;91.90;;;;;;4975178;28;20026;-67
2021/08/21 05:09:22;;;;;;;34.95;31.45;;;22.40;91.90;;;;;;4975098;28;20038;-67
2021/08/21 05:11:50;;;;;;;32.60;29.30;;;22.40;90.10;;;;;;4973775;28;20051;-66
2021/08/21 05:14:17;;;;;;;32.45;29.08;;;22.40;89.90;;;;;;4973989;28;20499;-67
2021/08/21 05:16:46;;;;;;;21.30;19.27;;;22.40;90.20;;;;;;4975221;28;20030;-68
2021/08/21 05:22:21;;;;;;;15.90;14.40;;;22.30;89.10;;;;;;4975374;28;20034;-67
2021/08/21 05:24:49;;;;;;;24.35;21.90;;;22.20;89.10;;;;;;4974215;28;20031;-67
2021/08/21 05:27:18;;;;;;;22.58;20.30;;;22.20;89.60;;;;;;4975549;28;20030;-68
2021/08/21 05:29:45;;;;;;;22.40;20.20;;;22.20;90.10;;;;;;4975088;28;20026;-67
2021/08/21 05:32:13;;;;;;;18.38;16.58;;;22.30;90.10;;;;;;4974785;28;20019;-68
2021/08/21 05:34:42;;;;;;;19.02;17.15;;;22.30;89.10;;;;;;4974738;28;20051;-68
2021/08/21 05:37:09;;;;;;;17.13;15.38;;;22.40;89.60;;;;;;4975251;28;20026;-68
2021/08/21 05:39:36;;;;;;;15.23;13.70;;;22.20;90.10;;;;;;4975529;28;20089;-69
2021/08/21 05:42:04;;;;;;;14.57;13.07;;;22.20;89.20;;;;;;4975709;28;20492;-68
2021/08/21 05:44:31;;;;;;;12.98;11.68;;;22.20;88.90;;;;;;4975799;28;20026;-69
2021/08/21 05:46:59;;;;;;;12.27;11.18;;;22.20;87.20;;;;;;4975317;28;20037;-68
2021/08/21 05:49:26;;;;;;;12.75;11.55;;;22.20;87.90;;;;;;4974878;28;20026;-68
2021/08/21 05:51:53;;;;;;;13.10;11.63;;;22.20;87.80;;;;;;4974745;28;20022;-68
2021/08/21 05:54:21;;;;;;;12.25;11.15;;;22.20;87.40;;;;;;4974724;28;20113;-67
2021/08/21 05:56:48;;;;;;;12.27;11.10;;;22.10;87.80;;;;;;4974894;28;20403;-68
2021/08/21 05:59:16;;;;;;;14.05;11.32;;;22.10;88.30;;;;;;4975509;28;20042;-77
2021/08/21 06:01:43;;;;;;;13.80;11.50;;;22.00;88.40;;;;;;4973720;28;20023;-78
2021/08/21 06:04:10;;;;;;;13.07;11.80;;;22.00;87.80;;;;;;4973177;28;20019;-76
2021/08/21 06:06:38;;;;;;;12.82;11.15;;;22.00;87.70;;;;;;4973502;28;20041;-77
2021/08/21 06:09:06;;;;;;;11.18;10.07;;;22.00;88.90;;;;;;4973388;28;20071;-76
2021/08/21 06:11:34;;;;;;;11.95;10.85;;;21.90;88.40;;;;;;4974172;28;20113;-76
2021/08/21 06:14:01;;;;;;;11.98;10.77;;;21.80;88.00;;;;;;4974334;28;20105;-76
2021/08/21 06:16:29;;;;;;;13.43;12.00;;;21.80;88.10;;;;;;4974395;28;20047;-77
2021/08/21 06:18:56;;;;;;;14.50;13.07;;;21.80;90.60;;;;;;4973475;28;20023;-77
2021/08/21 06:21:24;;;;;;;14.07;12.75;;;21.60;92.30;;;;;;4973717;28;20031;-76
2021/08/21 06:23:51;;;;;;;16.27;14.73;;;21.40;93.00;;;;;;4976583;28;20062;-76
2021/08/21 06:26:19;;;;;;;18.00;16.17;;;21.30;93.30;;;;;;4976156;28;20035;-76
2021/08/21 06:28:46;;;;;;;20.50;18.40;;;21.20;93.50;;;;;;4976290;28;20062;-76
2021/08/21 06:31:14;;;;;;;22.90;20.52;;;21.10;93.90;;;;;;4977371;28;20075;-75
2021/08/21 06:33:41;;;;;;;21.00;18.90;;;21.00;93.90;;;;;;4977288;28;20110;-75
2021/08/21 06:36:09;;;;;;;20.63;18.42;;;20.90;94.40;;;;;;4977310;28;20018;-76
2021/08/21 06:38:36;;;;;;;20.98;17.98;;;20.70;94.90;;;;;;4977212;28;20102;-75
2021/08/21 06:41:04;;;;;;;20.80;16.80;;;20.60;95.80;;;;;;4977055;28;20448;-75
2021/08/21 06:43:31;;;;;;;21.98;18.42;;;20.40;96.10;;;;;;4977105;28;20438;-75
2021/08/21 06:45:58;;;;;;;19.55;16.35;;;20.40;96.70;;;;;;4977198;28;20089;-76
2021/08/21 06:48:26;;;;;;;28.38;16.30;;;20.20;97.10;;;;;;4975860;28;20086;-78
2021/08/21 06:50:54;;;;;;;21.05;16.20;;;20.10;97.30;;;;;;4975653;28;20443;-75
2021/08/21 06:53:21;;;;;;;19.27;15.55;;;19.90;97.90;;;;;;4977130;28;20026;-76
2021/08/21 06:55:48;;;;;;;14.43;12.90;;;19.80;98.30;;;;;;4977073;28;20399;-75
2021/08/21 06:58:18;;;;;;;13.48;12.05;;;19.70;98.80;;;;;;4977089;28;20037;-76
2021/08/21 07:00:45;;;;;;;10.18;9.00;;;19.50;99.50;;;;;;4976371;28;20023;-76
2021/08/21 07:03:13;;;;;;;8.80;6.90;;;19.40;99.90;;;;;;4976959;28;20397;-77
2021/08/21 07:05:42;;;;;;;7.35;5.90;;;19.30;99.90;;;;;;4976835;28;20109;-77
2021/08/21 07:08:09;;;;;;;9.05;4.93;;;19.20;99.90;;;;;;4976720;28;20019;-78
2021/08/21 07:10:36;;;;;;;7.72;5.30;;;19.00;99.90;;;;;;4976770;28;20102;-77
2021/08/21 07:13:04;;;;;;;6.65;4.75;;;18.90;99.90;;;;;;4976590;28;20030;-78
2021/08/21 07:15:31;;;;;;;6.70;5.13;;;18.70;99.90;;;;;;4976525;28;20082;-78
2021/08/21 07:17:58;;;;;;;5.22;4.72;;;18.50;99.90;;;;;;4975222;28;20094;-78
2021/08/21 07:20:26;;;;;;;5.63;4.80;;;18.40;99.90;;;;;;4975045;28;20030;-77
2021/08/21 07:22:53;;;;;;;6.00;4.80;;;18.30;99.90;;;;;;4976619;28;20091;-77
2021/08/21 07:25:21;;;;;;;6.63;5.57;;;18.20;99.90;;;;;;4976756;28;20089;-77
2021/08/21 07:27:48;;;;;;;20.30;18.50;;;18.00;99.90;;;;;;4976584;28;20030;-78
2021/08/21 07:30:15;;;;;;;24.20;22.05;;;17.90;99.90;;;;;;4976286;28;20443;-77
2021/08/21 07:32:43;;;;;;;20.58;18.38;;;17.80;99.90;;;;;;4976358;28;20030;-76
2021/08/21 07:35:10;;;;;;;11.70;10.48;;;17.70;99.90;;;;;;4975277;28;20483;-79
2021/08/21 07:37:39;;;;;;;7.00;5.28;;;17.60;99.90;;;;;;4974928;28;20491;-77
2021/08/21 07:40:07;;;;;;;8.15;6.18;;;17.50;99.90;;;;;;4976358;28;20468;-77
2021/08/21 07:42:35;;;;;;;6.28;5.78;;;17.40;99.90;;;;;;4976319;28;20049;-77
2021/08/21 07:45:03;;;;;;;7.88;5.55;;;17.40;99.90;;;;;;4976186;28;20034;-78
2021/08/21 07:47:31;;;;;;;6.68;5.80;;;17.30;99.90;;;;;;4974803;28;20500;-79
2021/08/21 07:49:58;;;;;;;11.20;6.15;;;17.20;99.90;;;;;;4974847;28;20031;-78
2021/08/21 07:52:25;;;;;;;7.35;6.60;;;17.20;99.90;;;;;;4976137;28;20177;-79
2021/08/21 07:54:53;;;;;;;8.55;7.28;;;17.10;99.90;;;;;;4976152;28;20037;-76
2021/08/21 07:57:21;;;;;;;9.35;6.63;;;17.00;99.90;;;;;;4975944;28;20027;-78
2021/08/21 07:59:48;;;;;;;9.77;7.45;;;17.00;99.90;;;;;;4975967;28;20197;-77
2021/08/21 08:02:15;;;;;;;8.15;7.35;;;16.90;99.90;;;;;;4975975;28;20030;-77
2021/08/21 08:04:42;;;;;;;11.73;8.23;;;16.70;99.90;;;;;;4975689;28;20019;-77
2021/08/21 08:07:10;;;;;;;8.80;7.57;;;16.70;99.90;;;;;;4974495;28;20121;-76
2021/08/21 08:09:37;;;;;;;9.32;7.38;;;16.60;99.90;;;;;;4975968;28;20023;-78
2021/08/21 08:12:05;;;;;;;10.52;8.40;;;16.50;99.90;;;;;;4975607;28;20488;-78
2021/08/21 08:14:32;;;;;;;10.25;8.15;;;16.40;99.90;;;;;;4975989;28;20042;-77
2021/08/21 08:16:59;;;;;;;8.52;7.70;;;16.30;99.90;;;;;;4975779;28;20035;-78
2021/08/21 08:19:26;;;;;;;14.45;11.65;;;16.20;99.90;;;;;;4975912;28;20015;-78
2021/08/21 08:21:54;;;;;;;11.85;9.98;;;16.20;99.90;;;;;;4975752;28;20027;-77
2021/08/21 08:24:23;;;;;;;10.02;9.13;;;16.20;99.90;;;;;;4975476;28;20093;-77
2021/08/21 08:26:51;;;;;;;11.20;10.13;;;16.10;99.90;;;;;;4975793;28;20121;-78
2021/08/21 08:29:19;;;;;;;9.98;9.07;;;16.10;99.90;;;;;;4975457;28;20027;-78
2021/08/21 08:31:46;;;;;;;10.18;9.23;;;16.00;99.90;;;;;;4975270;28;20030;-77
2021/08/21 08:34:13;;;;;;;10.52;9.52;;;16.00;99.90;;;;;;4975249;28;20019;-78
2021/08/21 08:36:41;;;;;;;11.05;9.98;;;15.90;99.90;;;;;;4973675;28;20209;-77
2021/08/21 08:39:08;;;;;;;10.90;9.90;;;15.90;99.90;;;;;;4975097;28;20555;-78
2021/08/21 08:41:36;;;;;;;11.32;10.25;;;15.90;99.90;;;;;;4975015;28;20019;-76
2021/08/21 08:44:04;;;;;;;11.13;10.23;;;15.90;99.90;;;;;;4974672;28;20369;-77
2021/08/21 08:46:31;;;;;;;12.18;11.13;;;15.90;99.90;;;;;;4975057;28;20464;-77
2021/08/21 08:49:02;;;;;;;11.82;10.75;;;15.80;99.90;;;;;;4974026;28;20450;-77
2021/08/21 08:51:29;;;;;;;;;;;15.80;99.90;;;;;;4975634;28;20108;-77
2021/08/21 08:53:56;;;;;;;12.18;11.10;;;15.80;99.90;;;;;;4973617;28;19936;-75
2021/08/21 08:56:23;;;;;;;13.20;11.90;;;15.70;99.90;;;;;;4974830;28;20496;-76
2021/08/21 08:58:51;;;;;;;13.05;11.95;;;15.60;99.90;;;;;;4975140;28;20180;-76
2021/08/21 09:01:18;;;;;;;13.13;11.93;;;15.60;99.90;;;;;;4973798;28;20365;-77
2021/08/21 09:03:46;;;;;;;13.73;12.65;;;15.50;99.90;;;;;;4974760;28;20027;-76
2021/08/21 09:06:14;;;;;;;13.63;12.52;;;15.50;99.90;;;;;;4973450;28;20484;-77
2021/08/21 09:08:42;;;;;;;14.25;13.05;;;15.40;99.90;;;;;;4973520;28;20034;-77
2021/08/21 09:11:21;;;;;;;13.98;12.98;;;15.30;99.90;;;;;;4973265;28;20057;-77
2021/08/21 09:13:49;;;;;;;13.73;12.70;;;15.30;99.90;;;;;;4973803;28;20023;-76
2021/08/21 09:16:27;;;;;;;13.80;12.80;;;15.30;99.90;;;;;;4974447;28;20113;-77
2021/08/21 09:19:07;;;;;;;14.98;13.40;;;15.20;99.90;;;;;;4974672;28;20019;-78
2021/08/21 09:21:34;;;;;;;14.95;13.77;;;15.20;99.90;;;;;;4974823;28;20027;-77
2021/08/21 09:24:21;;;;;;;15.43;14.00;;;15.20;99.90;;;;;;4974276;28;20098;-77
2021/08/21 09:26:49;;;;;;;15.10;13.68;;;15.10;99.90;;;;;;4974485;28;20121;-78
2021/08/21 09:29:27;;;;;;;15.48;14.13;;;15.10;99.90;;;;;;4974172;28;20062;-78
2021/08/21 09:32:10;;;;;;;15.43;14.05;;;15.10;99.90;;;;;;4974336;28;20119;-77
2021/08/21 09:34:39;;;;;;;14.93;13.85;;;15.10;99.90;;;;;;4972725;28;20083;-77
2021/08/21 09:37:10;;;;;;;16.13;14.77;;;15.00;99.90;;;;;;4972766;28;20129;-78
2021/08/21 09:39:42;;;;;;;16.70;15.35;;;15.00;99.90;;;;;;4972632;28;20374;-76
2021/08/21 09:42:11;;;;;;;16.73;15.35;;;14.90;99.90;;;;;;4974413;28;20365;-77
2021/08/21 09:44:41;;;;;;;17.02;15.52;;;14.90;99.90;;;;;;4974019;28;20026;-77
2021/08/21 09:47:32;;;;;;;16.80;15.50;;;14.80;99.90;;;;;;4972789;28;20035;-78
2021/08/21 09:50:14;;;;;;;17.55;16.17;;;14.80;99.90;;;;;;4972870;28;20535;-78
2021/08/21 09:52:47;;;;;;;16.83;15.23;;;14.70;99.90;;;;;;4972710;28;20022;-79
2021/08/21 09:55:19;;;;;;;17.15;15.63;;;14.70;99.90;;;;;;4973893;28;20086;-79
2021/08/21 09:58:08;;;;;;;20.30;18.52;;;14.60;99.90;;;;;;4973397;28;20055;-80
2021/08/21 10:00:38;;;;;;;20.80;18.90;;;14.60;99.90;;;;;;4974210;28;20027;-79
2021/08/21 10:03:06;;;;;;;19.58;17.98;;;14.50;99.90;;;;;;4972756;28;20027;-78
2021/08/21 10:05:33;;;;;;;19.27;17.67;;;14.50;99.90;;;;;;4972538;28;20110;-77
2021/08/21 10:08:08;;;;;;;19.45;17.65;;;14.50;99.90;;;;;;4974349;28;20033;-79
2021/08/21 10:10:49;;;;;;;20.52;18.65;;;14.50;99.90;;;;;;4974114;28;20023;-79
2021/08/21 10:13:27;;;;;;;18.17;16.63;;;14.40;99.90;;;;;;4972826;28;20053;-76
2021/08/21 10:15:56;;;;;;;16.85;15.45;;;14.30;99.90;;;;;;4973610;28;20038;-78
2021/08/21 10:18:24;;;;;;;18.83;16.92;;;14.30;99.90;;;;;;4973812;28;20050;-75
2021/08/21 10:20:52;;;;;;;18.15;16.45;;;14.20;99.90;;;;;;4973931;28;20019;-78
2021/08/21 10:23:27;;;;;;;18.27;16.73;;;14.20;99.90;;;;;;4974235;28;20023;-78
2021/08/21 10:26:02;;;;;;;18.50;16.88;;;14.20;99.90;;;;;;4975229;28;20054;-78
2021/08/21 10:28:37;;;;;;;18.40;16.88;;;14.10;99.90;;;;;;4975520;28;20031;-77
2021/08/21 10:31:06;;;;;;;17.60;16.20;;;14.00;99.90;;;;;;4975839;28;20057;-78
2021/08/21 10:33:55;;;;;;;17.83;16.42;;;14.00;99.90;;;;;;4975146;28;20026;-78
2021/08/21 10:36:52;;;;;;;17.73;16.13;;;13.90;99.90;;;;;;4974723;28;20106;-78
2021/08/21 10:39:32;;;;;;;19.02;17.30;;;13.80;99.90;;;;;;4975693;28;20027;-77
2021/08/21 10:42:25;;;;;;;23.08;21.00;;;13.70;99.90;;;;;;4973431;28;20072;-77
2021/08/21 10:44:54;;;;;;;22.80;20.70;;;13.60;99.90;;;;;;4975329;28;20441;-78
2021/08/21 10:47:38;;;;;;;23.17;21.08;;;13.60;99.90;;;;;;4973410;28;20039;-77
2021/08/21 10:50:17;;;;;;;24.80;22.60;;;13.60;99.90;;;;;;4974108;28;20452;-77
2021/08/21 10:52:48;;;;;;;24.20;22.10;;;13.50;99.90;;;;;;4974517;28;20499;-77
2021/08/21 10:55:36;;;;;;;26.05;23.75;;;13.50;99.90;;;;;;4973867;28;20023;-78
2021/08/21 10:58:28;;;;;;;26.25;23.58;;;13.50;99.90;;;;;;4973842;28;20058;-76
2021/08/21 11:01:01;;;;;;;26.10;23.70;;;13.40;99.90;;;;;;4973238;28;20030;-77
2021/08/21 11:03:31;;;;;;;27.23;24.70;;;13.30;99.90;;;;;;4974664;28;20026;-78
2021/08/21 11:06:15;;;;;;;26.75;24.33;;;13.20;99.90;;;;;;4977182;28;20030;-79
2021/08/21 11:08:42;;;;;;;30.50;27.55;;;13.10;99.90;;;;;;4976162;28;20027;-78
2021/08/21 11:14:01;;;;;;;31.58;28.67;;;13.10;99.90;;;;;;4976986;28;20058;-78
2021/08/21 11:16:54;;;;;;;29.98;27.20;;;13.20;99.90;;;;;;4975504;28;20046;-79
2021/08/21 11:19:30;;;;;;;29.63;26.60;;;13.20;99.90;;;;;;4976896;28;20031;-77
2021/08/21 11:22:17;;;;;;;29.00;26.35;;;13.20;99.90;;;;;;4977006;28;20029;-77
2021/08/21 11:24:56;;;;;;;29.75;26.85;;;13.20;99.90;;;;;;4976796;28;20026;-78
2021/08/21 11:27:27;;;;;;;28.20;25.60;;;13.10;99.90;;;;;;4976902;28;20369;-78
2021/08/21 11:30:21;;;;;;;28.35;25.70;;;13.00;99.90;;;;;;4976861;28;20019;-78
2021/08/21 11:32:52;;;;;;;30.35;27.45;;;13.00;99.90;;;;;;4976755;28;20346;-78
2021/08/21 11:35:30;;;;;;;31.58;28.45;;;13.00;99.90;;;;;;4975478;28;20079;-78
2021/08/21 11:38:00;;;;;;;34.10;30.50;;;12.90;99.90;;;;;;4975081;28;20407;-78
2021/08/21 11:40:47;;;;;;;35.08;31.48;;;12.80;99.90;;;;;;4976372;28;20085;-77
2021/08/21 11:43:21;;;;;;;31.33;28.33;;;12.70;99.90;;;;;;4976362;28;20023;-78
2021/08/21 11:45:49;;;;;;;31.00;28.10;;;12.70;99.90;;;;;;4976473;28;20078;-79
2021/08/21 11:48:17;;;;;;;30.88;27.92;;;12.80;99.90;;;;;;4976470;28;20026;-76
2021/08/21 11:50:49;;;;;;;33.35;30.25;;;12.80;99.90;;;;;;4976699;28;20495;-78
2021/08/21 11:53:24;;;;;;;31.15;28.45;;;12.80;99.90;;;;;;4976204;28;20023;-78
2021/08/21 11:55:54;;;;;;;30.35;27.75;;;12.80;99.90;;;;;;4976188;28;20484;-78
2021/08/21 11:58:31;;;;;;;32.92;29.92;;;12.80;99.90;;;;;;4974887;28;20034;-77
2021/08/21 12:01:18;;;;;;;30.73;27.92;;;12.80;99.90;;;;;;4976380;28;20033;-78
2021/08/21 12:06:23;;;;;;;30.65;27.65;;;12.70;99.90;;;;;;4976143;28;20027;-79
2021/08/21 12:08:51;;;;;;;30.95;28.10;;;12.70;99.90;;;;;;4974722;28;20492;-78
2021/08/21 12:11:19;;;;;;;31.30;28.42;;;12.70;99.90;;;;;;4975862;28;20065;-79
2021/08/21 12:13:47;;;;;;;31.63;28.75;;;12.70;99.90;;;;;;4975899;28;20027;-78
2021/08/21 12:16:16;;;;;;;37.17;33.50;;;12.60;99.90;;;;;;4975669;28;20139;-78
2021/08/21 12:18:48;;;;;;;38.13;34.47;;;12.60;99.90;;;;;;4974324;28;20030;-77
2021/08/21 12:21:21;;;;;;;42.75;38.45;;;12.60;99.90;;;;;;4975509;28;20015;-78
2021/08/21 12:23:53;;;;;;;45.78;40.85;;;12.60;99.90;;;;;;4975622;28;20427;-78
2021/08/21 12:26:37;;;;;;;44.53;39.70;;;12.60;99.90;;;;;;4974384;28;20022;-78
2021/08/21 12:29:06;;;;;;;44.17;39.67;;;12.60;99.90;;;;;;4975927;28;20023;-77
2021/08/21 12:31:40;;;;;;;39.97;36.03;;;12.50;99.90;;;;;;4974257;28;20118;-77
2021/08/21 12:34:08;;;;;;;45.53;41.00;;;12.50;99.90;;;;;;4975418;28;20110;-77
2021/08/21 12:36:43;;;;;;;44.83;40.15;;;12.50;99.90;;;;;;4975302;28;20098;-77
2021/08/21 12:39:14;;;;;;;42.35;38.15;;;12.40;99.90;;;;;;4975364;28;20114;-77
2021/08/21 12:42:05;;;;;;;45.55;40.95;;;12.40;99.90;;;;;;4975337;28;20097;-78
2021/08/21 12:44:43;;;;;;;45.75;41.22;;;12.30;99.90;;;;;;4975236;28;20077;-78
2021/08/21 12:47:18;;;;;;;48.15;43.20;;;12.20;99.90;;;;;;4975418;28;20026;-78
2021/08/21 12:49:48;;;;;;;47.38;42.45;;;12.20;99.90;;;;;;4975313;28;20030;-77
2021/08/21 12:52:27;;;;;;;46.10;41.50;;;12.10;99.90;;;;;;4975296;28;20410;-77